PDT,Max TemperatureF,Mean TemperatureF,Min TemperatureF,Max Dew PointF,MeanDew PointF,Min DewpointF,Max Humidity, Mean Humidity, Min Humidity, Max Sea Level PressureIn, Mean Sea Level PressureIn, Min Sea Level PressureIn, Max VisibilityMiles, Mean VisibilityMiles, Min VisibilityMiles, Max Wind SpeedMPH, Mean Wind SpeedMPH, Max Gust SpeedMPH,PrecipitationIn, CloudCover, Events, WindDirDegrees
2013-10-1,57,52,48,47,41,31,86,70,43,30.14,30.03,29.94,10,10,3,9,5,,0.23,7,Rain,141
2013-10-2,54,51,48,50,38,28,100,65,38,30.20,30.12,30.07,10,8,2,7,4,,0.50,8,Rain,180
2013-10-3,57,50,46,49,48,45,100,91,67,30.48,30.34,30.19,10,8,2,6,1,,0.08,7,Rain,313
2013-10-4,62,50,39,50,44,39,100,91,62,30.51,30.46,30.38,10,7,0,6,1,,0.00,3,Fog,337
2013-10-5,68,55,44,53,47,42,97,81,51,30.38,30.29,30.15,10,10,9,9,1,,0.00,1,,315
2013-10-6,75,58,44,52,46,42,100,81,33,30.15,30.02,29.90,10,7,0,8,3,,0.00,2,Fog-Rain,129
2013-10-7,61,57,53,54,49,44,100,80,55,30.04,29.98,29.92,10,9,4,17,8,24,0.14,7,Rain,154
2013-10-8,55,50,45,48,45,42,100,79,64,30.10,30.02,29.98,10,8,1,9,5,17,0.23,6,Rain,184
2013-10-9,57,48,39,46,42,38,100,86,56,30.17,30.09,29.98,10,9,2,6,1,,0.00,1,,118
2013-10-10,59,52,46,51,47,44,96,85,62,30.10,30.01,29.97,10,9,4,6,2,,0.04,8,Rain,157
2013-10-11,57,52,50,52,50,46,100,93,69,30.16,30.12,30.07,10,5,2,4,0,,0.32,8,Rain,153
2013-10-12,57,52,46,49,48,46,100,88,72,30.24,30.13,30.08,10,8,4,10,2,,0.07,6,Rain,313
2013-10-13,55,48,42,47,44,42,100,92,72,30.39,30.31,30.25,9,5,0,4,0,,0.00,5,Fog,320
2013-10-14,57,48,39,48,42,37,100,92,67,30.45,30.41,30.38,10,6,0,6,1,,0.00,4,Fog,291
2013-10-15,59,48,39,49,44,39,100,93,69,30.41,30.33,30.20,8,4,0,5,1,,0.00,4,Fog,69
2013-10-16,53,48,44,49,46,43,100,92,80,30.23,30.19,30.16,6,4,1,9,2,,0.00,6,,356
2013-10-17,55,50,44,48,46,43,100,89,77,30.29,30.26,30.22,7,5,4,7,1,,0.00,5,,317
2013-10-18,57,48,42,49,45,42,100,95,77,30.27,30.23,30.16,8,4,0,6,1,,0.00,5,Fog,325
2013-10-19,50,48,46,48,46,45,100,96,87,30.22,30.19,30.16,7,3,0,5,1,,0.00,8,Fog,354
2013-10-20,50,48,46,47,46,44,97,93,86,30.23,30.20,30.18,7,6,4,6,1,,0.00,8,,340
2013-10-21,52,49,46,48,47,45,100,94,82,30.19,30.15,30.11,7,6,2,7,1,,0.00,8,,335
2013-10-22,55,50,45,50,47,44,100,95,82,30.14,30.10,30.04,10,6,2,9,3,,0.00,6,,337
2013-10-23,57,51,45,49,47,45,100,97,74,30.08,30.03,30.00,7,2,0,4,1,,0.00,3,Fog,316
2013-10-24,51,48,44,49,47,44,100,97,88,30.15,30.08,30.04,3,2,0,5,1,,0.00,8,Fog,155
2013-10-25,53,48,44,49,47,45,100,94,83,30.34,30.26,30.14,9,4,0,7,1,,0.00,7,Fog,103
2013-10-26,53,48,44,46,45,44,100,89,77,30.35,30.31,30.22,6,4,1,5,1,,0.00,8,,120
2013-10-27,55,49,44,48,46,44,100,91,80,30.21,29.99,29.92,10,5,2,7,3,,0.03,7,Rain,109
2013-10-28,57,50,41,46,39,33,100,74,42,29.97,29.94,29.91,10,9,5,16,4,21,0.00,1,,337
2013-10-29,55,46,36,39,35,33,93,74,42,30.06,30.03,29.98,10,9,7,7,2,,0.00,0,,148
2013-10-30,57,46,36,47,39,34,93,75,57,30.15,30.13,30.07,10,8,5,12,4,,0.01,5,Rain,143
2013-10-31,55,52,48,52,48,43,96,90,77,30.28,30.18,30.11,10,6,3,6,2,,0.01,8,Rain,127